Time;durP1;ratioP1;P1;durP2;ratioP2;P2;SDS_P1;SDS_P2;PMS_P1;PMS_P2;Temp;Humidity;BMP_temperature;BMP_pressure;BME280_temperature;BME280_humidity;BME280_pressure;Samples;Min_cycle;Max_cycle;Signal;HPM_P1;HPM_P2
2022/01/21 00:02:31;;;;;;;4.10;3.80;;;-0.10;1.00;;;;;;6287621;28;20729;-57
2022/01/21 00:05:34;;;;;;;5.30;4.17;;;-0.30;1.00;;;;;;6279475;28;21011;-54
2022/01/21 00:08:41;;;;;;;5.50;4.07;;;-0.30;1.00;;;;;;6267033;28;20281;-55
2022/01/21 00:11:44;;;;;;;5.37;3.70;;;0.00;1.00;;;;;;6272067;28;20234;-56
2022/01/21 00:14:46;;;;;;;4.37;3.83;;;0.10;1.00;;;;;;6262367;28;20233;-57
2022/01/21 00:17:49;;;;;;;4.07;3.77;;;0.00;1.00;;;;;;6263163;28;20378;-56
2022/01/21 00:31:10;;;;;;;4.07;3.77;;;0.00;1.00;;;;;;6264754;28;20493;-55
2022/01/21 00:34:12;;;;;;;3.50;3.40;;;-0.30;1.00;;;;;;6262542;28;20257;-55
2022/01/21 00:37:15;;;;;;;5.97;4.23;;;0.00;1.00;;;;;;6262769;28;20770;-55
2022/01/21 00:40:24;;;;;;;4.57;4.17;;;0.00;1.00;;;;;;6259763;28;20237;-56
2022/01/21 00:43:31;;;;;;;3.90;3.70;;;-0.30;1.00;;;;;;6267507;28;20234;-55
2022/01/21 00:46:34;;;;;;;4.83;3.80;;;0.00;1.00;;;;;;6265987;28;20441;-55
2022/01/21 00:49:37;;;;;;;3.80;3.60;;;-0.10;1.00;;;;;;6266051;28;20290;-57
2022/01/21 00:52:39;;;;;;;4.60;4.30;;;0.00;1.00;;;;;;6267641;28;20245;-56
2022/01/21 00:55:44;;;;;;;5.60;4.30;;;-0.30;1.00;;;;;;6269814;28;20325;-56
2022/01/21 00:58:47;;;;;;;4.23;4.13;;;0.00;1.00;;;;;;6269133;28;20388;-56
2022/01/21 01:01:49;;;;;;;3.90;3.70;;;-0.20;1.00;;;;;;6268213;28;20234;-56
2022/01/21 01:04:53;;;;;;;4.93;4.27;;;-0.40;1.00;;;;;;6264913;28;20306;-58
2022/01/21 01:08:01;;;;;;;5.43;3.90;;;-0.10;1.00;;;;;;6263333;28;20620;-58
2022/01/21 01:11:28;;;;;;;4.10;3.90;;;-0.10;1.00;;;;;;6267621;28;20338;-58
2022/01/21 01:21:12;;;;;;;4.60;4.13;;;-0.40;1.00;;;;;;6266699;28;20228;-55
2022/01/21 01:27:40;;;;;;;6.47;3.60;;;-0.40;1.00;;;;;;6258525;28;20372;-57
2022/01/21 01:30:43;;;;;;;3.97;3.63;;;-0.50;1.00;;;;;;6264484;28;20482;-57
2022/01/21 01:33:46;;;;;;;6.23;4.20;;;-0.40;1.00;;;;;;6262366;28;20278;-55
2022/01/21 01:36:48;;;;;;;4.00;3.60;;;-0.50;1.00;;;;;;6260549;28;20340;-56
2022/01/21 01:40:00;;;;;;;4.20;4.00;;;-0.30;1.00;;;;;;6262428;28;20299;-57
2022/01/21 01:49:47;;;;;;;4.50;3.87;;;-0.40;1.00;;;;;;6261478;28;20236;-55
2022/01/21 01:52:52;;;;;;;4.03;3.77;;;-0.40;1.00;;;;;;6265836;28;20383;-56
2022/01/21 01:55:56;;;;;;;3.97;3.83;;;-0.20;1.00;;;;;;6265732;28;20244;-55
2022/01/21 01:59:00;;;;;;;7.33;3.70;;;-0.20;1.00;;;;;;6261154;28;20811;-56
2022/01/21 02:02:09;;;;;;;3.97;3.67;;;-0.50;1.00;;;;;;6267154;28;20289;-56
2022/01/21 02:05:12;;;;;;;5.03;3.80;;;-0.40;1.00;;;;;;6265239;28;20607;-55
2022/01/21 02:08:15;;;;;;;4.80;3.70;;;-0.60;1.00;;;;;;6260618;28;20326;-56
2022/01/21 02:11:18;;;;;;;3.97;3.77;;;-0.30;1.00;;;;;;6262098;28;20332;-56
2022/01/21 02:14:27;;;;;;;4.40;4.07;;;-0.40;1.00;;;;;;6256758;28;20256;-55
2022/01/21 02:21:31;;;;;;;4.07;3.67;;;-0.50;1.00;;;;;;6266337;28;21040;-54
2022/01/21 02:24:47;;;;;;;3.67;3.57;;;-0.40;1.00;;;;;;6264642;28;20713;-56
2022/01/21 02:27:53;;;;;;;4.77;4.17;;;-0.70;1.00;;;;;;6264320;28;20297;-55
2022/01/21 02:30:58;;;;;;;6.67;3.93;;;-0.70;1.00;;;;;;6264870;28;20312;-56
2022/01/21 02:34:02;;;;;;;5.20;3.67;;;-0.50;1.00;;;;;;6258268;28;20257;-55
2022/01/21 02:37:06;;;;;;;4.30;3.90;;;-0.60;1.00;;;;;;6261442;28;20229;-56
2022/01/21 02:40:12;;;;;;;5.13;4.03;;;-0.50;1.00;;;;;;6259102;28;20236;-56
2022/01/21 02:43:15;;;;;;;5.27;4.13;;;-0.70;1.00;;;;;;6264248;28;20233;-56
2022/01/21 02:46:21;;;;;;;5.87;3.90;;;-0.80;1.00;;;;;;6260681;28;20534;-56
2022/01/21 02:49:25;;;;;;;4.73;3.70;;;-0.80;1.00;;;;;;6260653;28;20238;-56
2022/01/21 02:52:29;;;;;;;4.40;4.00;;;-0.60;1.00;;;;;;6264913;28;20278;-56
2022/01/21 02:55:32;;;;;;;6.90;3.90;;;-0.80;1.00;;;;;;6264029;28;20986;-55
2022/01/21 02:58:35;;;;;;;6.07;3.93;;;-0.80;1.00;;;;;;6263215;28;20241;-54
2022/01/21 03:01:41;;;;;;;4.93;3.83;;;-0.70;1.00;;;;;;6261263;28;20857;-55
2022/01/21 03:04:52;;;;;;;4.57;4.07;;;-0.70;1.00;;;;;;6260513;28;20234;-57
2022/01/21 03:07:56;;;;;;;3.83;3.50;;;-0.70;1.00;;;;;;6261259;28;20355;-56
2022/01/21 03:10:59;;;;;;;4.83;3.53;;;-0.60;1.00;;;;;;6264732;28;20852;-56
2022/01/21 03:14:02;;;;;;;4.40;3.77;;;-0.70;1.00;;;;;;6268725;28;20652;-56
2022/01/21 03:17:05;;;;;;;4.23;3.83;;;-0.90;1.00;;;;;;6270041;28;20283;-54
2022/01/21 03:20:08;;;;;;;5.33;3.97;;;-0.80;1.00;;;;;;6263000;28;20240;-54
2022/01/21 03:23:16;;;;;;;5.80;4.23;;;-0.60;1.00;;;;;;6279242;28;20808;-56
2022/01/21 03:26:20;;;;;;;4.73;4.23;;;-0.90;1.00;;;;;;6268256;28;20674;-56
2022/01/21 03:29:24;;;;;;;3.87;3.67;;;-0.60;1.00;;;;;;6264847;28;20257;-55
2022/01/21 03:32:26;;;;;;;4.27;3.90;;;-0.70;1.00;;;;;;6270857;28;20236;-55
2022/01/21 03:35:29;;;;;;;3.60;3.40;;;-0.60;1.00;;;;;;6278086;28;20321;-56
2022/01/21 03:38:34;;;;;;;4.10;3.70;;;-0.70;1.00;;;;;;6288428;28;20283;-55
2022/01/21 03:41:36;;;;;;;4.43;4.13;;;-0.80;1.00;;;;;;6271812;28;20236;-55
2022/01/21 03:44:39;;;;;;;3.90;3.70;;;-0.70;1.00;;;;;;6268590;28;20321;-57
2022/01/21 03:47:42;;;;;;;3.73;3.63;;;-0.90;1.00;;;;;;6271078;28;20372;-55
2022/01/21 03:50:45;;;;;;;3.73;3.53;;;-1.00;1.00;;;;;;6274216;28;20291;-55
2022/01/21 03:53:50;;;;;;;6.70;4.00;;;-0.90;1.00;;;;;;6271317;28;20252;-55
2022/01/21 03:56:52;;;;;;;5.10;4.13;;;-1.00;1.00;;;;;;6280181;28;20452;-55
2022/01/21 03:59:55;;;;;;;5.10;3.83;;;-1.00;1.00;;;;;;6270555;28;20492;-56
2022/01/21 04:02:58;;;;;;;4.03;3.80;;;-1.10;1.00;;;;;;6271283;28;20230;-55
2022/01/21 04:06:01;;;;;;;7.10;3.97;;;-1.00;1.00;;;;;;6271243;28;20231;-55
2022/01/21 04:09:05;;;;;;;4.20;3.87;;;-1.10;1.00;;;;;;6276951;28;20433;-56
2022/01/21 04:12:09;;;;;;;4.40;4.10;;;-1.10;1.00;;;;;;6277837;28;20467;-55
2022/01/21 04:15:13;;;;;;;6.33;4.10;;;-0.80;1.00;;;;;;6272819;28;20685;-54
2022/01/21 04:18:17;;;;;;;3.70;3.70;;;-1.00;1.00;;;;;;6270908;28;20259;-55
2022/01/21 04:21:21;;;;;;;4.07;3.87;;;-0.80;1.00;;;;;;6264496;28;20268;-54
2022/01/21 04:24:25;;;;;;;6.00;4.47;;;-1.10;1.00;;;;;;6271551;28;20237;-56
2022/01/21 04:27:28;;;;;;;7.07;4.30;;;-1.10;1.00;;;;;;6271412;28;20233;-55
2022/01/21 04:30:31;;;;;;;5.63;4.80;;;-1.10;1.00;;;;;;6269549;28;20709;-55
2022/01/21 04:33:34;;;;;;;5.60;4.87;;;-1.20;1.00;;;;;;6268684;28;20233;-55
2022/01/21 04:36:37;;;;;;;6.20;4.40;;;-1.10;1.00;;;;;;6268143;28;20233;-58
2022/01/21 04:39:47;;;;;;;6.27;3.93;;;-1.20;1.00;;;;;;6266963;28;20332;-55
2022/01/21 04:49:30;;;;;;;4.37;4.03;;;-1.20;1.00;;;;;;6269157;28;20230;-56
2022/01/21 04:52:33;;;;;;;5.80;4.20;;;-1.50;1.00;;;;;;6274143;28;20237;-55
2022/01/21 04:55:37;;;;;;;4.47;4.27;;;-1.50;1.00;;;;;;6284510;28;20238;-57
2022/01/21 04:58:40;;;;;;;5.63;4.33;;;-1.20;1.00;;;;;;6263936;28;20238;-56
2022/01/21 05:01:43;;;;;;;6.97;4.30;;;-1.30;1.00;;;;;;6279437;28;20233;-54
2022/01/21 05:04:46;;;;;;;4.50;4.10;;;-1.10;1.00;;;;;;6274775;28;20324;-56
2022/01/21 05:07:48;;;;;;;4.30;4.10;;;-1.30;1.00;;;;;;6269318;28;20527;-55
2022/01/21 05:10:52;;;;;;;4.50;4.10;;;-1.30;1.00;;;;;;6267841;28;20222;-55
2022/01/21 05:13:58;;;;;;;4.87;4.50;;;-1.50;1.00;;;;;;6273966;28;20233;-57
2022/01/21 05:17:05;;;;;;;4.50;4.30;;;-1.40;1.00;;;;;;6271078;28;20411;-54
2022/01/21 05:20:09;;;;;;;4.90;4.43;;;-1.20;1.00;;;;;;6272299;28;20372;-57
2022/01/21 05:23:11;;;;;;;7.63;4.40;;;-1.50;1.00;;;;;;6269783;28;20723;-56
2022/01/21 05:26:15;;;;;;;3.73;3.60;;;-1.10;1.00;;;;;;6263625;28;20234;-56
2022/01/21 05:29:18;;;;;;;4.57;4.10;;;-1.50;1.00;;;;;;6266519;28;20766;-54
2022/01/21 05:32:21;;;;;;;7.23;4.80;;;-1.20;1.00;;;;;;6280464;28;20335;-55
2022/01/21 05:35:24;;;;;;;4.07;3.87;;;-1.50;1.00;;;;;;6283138;28;20261;-55
2022/01/21 05:38:26;;;;;;;5.57;4.07;;;-1.50;1.00;;;;;;6278105;28;20351;-55
2022/01/21 05:41:31;;;;;;;4.73;4.37;;;-1.50;1.00;;;;;;6280443;28;20272;-54
2022/01/21 05:47:54;;;;;;;4.47;4.13;;;-1.60;1.00;;;;;;6281014;28;20737;-56
2022/01/21 05:50:58;;;;;;;4.73;4.37;;;-1.50;1.00;;;;;;6290814;28;20459;-55
2022/01/21 05:54:00;;;;;;;3.80;3.70;;;-1.50;1.00;;;;;;6286639;28;20265;-56
2022/01/21 05:57:07;;;;;;;7.33;4.43;;;-1.60;1.00;;;;;;6279565;28;20237;-55
2022/01/21 06:00:11;;;;;;;5.10;4.63;;;-1.50;1.00;;;;;;6281266;28;20261;-55
2022/01/21 06:03:14;;;;;;;4.83;4.37;;;-1.40;1.00;;;;;;6285340;28;20280;-56
2022/01/21 06:06:17;;;;;;;5.30;4.40;;;-1.50;1.00;;;;;;6283310;28;20373;-55
2022/01/21 06:09:19;;;;;;;5.10;4.20;;;-1.50;1.00;;;;;;6290840;28;20237;-55
2022/01/21 06:12:26;;;;;;;4.93;4.57;;;-1.50;1.00;;;;;;6285736;28;20237;-56
2022/01/21 06:15:29;;;;;;;4.80;4.00;;;-1.30;1.00;;;;;;6281180;28;20286;-56
2022/01/21 06:18:32;;;;;;;4.47;4.07;;;-1.60;1.00;;;;;;6282436;28;20247;-55
2022/01/21 06:21:34;;;;;;;4.43;4.13;;;-1.50;1.00;;;;;;6283166;28;20316;-55
2022/01/21 06:24:38;;;;;;;7.43;4.03;;;-1.30;1.00;;;;;;6281531;28;20308;-55
2022/01/21 06:27:44;;;;;;;11.43;4.30;;;-1.30;1.00;;;;;;6281713;28;20697;-56
2022/01/21 06:30:49;;;;;;;4.30;4.00;;;-1.30;1.00;;;;;;6283708;28;20288;-56
2022/01/21 06:33:51;;;;;;;4.70;4.43;;;-1.70;1.00;;;;;;6287015;28;20237;-55
2022/01/21 06:36:54;;;;;;;4.30;3.93;;;-1.50;1.00;;;;;;6285135;28;20464;-54
2022/01/21 06:39:57;;;;;;;4.67;4.37;;;-1.20;1.00;;;;;;6283282;28;20237;-55
2022/01/21 06:43:03;;;;;;;6.83;5.00;;;-1.60;1.00;;;;;;6272952;28;20387;-55
2022/01/21 06:46:07;;;;;;;6.17;5.27;;;-1.50;1.00;;;;;;6277079;28;20332;-56
2022/01/21 06:49:10;;;;;;;4.70;4.40;;;-1.40;1.00;;;;;;6270681;28;20273;-56
2022/01/21 06:52:12;;;;;;;5.00;4.43;;;-1.30;1.00;;;;;;6286180;28;20756;-55
2022/01/21 06:55:15;;;;;;;6.77;4.20;;;-1.50;1.00;;;;;;6278300;28;20304;-56
2022/01/21 06:58:19;;;;;;;14.33;5.10;;;-1.50;1.00;;;;;;6292219;28;20397;-56
2022/01/21 07:01:22;;;;;;;5.87;4.23;;;-1.50;1.00;;;;;;6284601;28;20381;-56
2022/01/21 07:04:25;;;;;;;5.10;3.93;;;-1.50;1.00;;;;;;6280430;28;20244;-54
2022/01/21 07:07:27;;;;;;;5.20;4.40;;;-1.40;1.00;;;;;;6281862;28;20256;-57
2022/01/21 07:10:30;;;;;;;6.33;4.23;;;-1.40;1.00;;;;;;6283250;28;20286;-57
2022/01/21 07:13:41;;;;;;;7.13;4.57;;;-1.30;1.00;;;;;;6289510;28;20244;-55
2022/01/21 07:16:44;;;;;;;5.57;4.33;;;-1.50;1.00;;;;;;6286590;28;20858;-60
2022/01/21 07:19:47;;;;;;;7.80;4.47;;;-1.50;1.00;;;;;;6297746;28;20276;-55
2022/01/21 07:22:50;;;;;;;4.80;4.40;;;-1.30;1.00;;;;;;6287981;28;20318;-55
2022/01/21 07:25:53;;;;;;;4.77;4.37;;;-1.20;1.00;;;;;;6289290;28;20285;-57
2022/01/21 07:28:57;;;;;;;6.30;4.83;;;-1.40;1.00;;;;;;6284186;28;20229;-56
2022/01/21 07:32:00;;;;;;;5.80;4.37;;;-1.40;1.00;;;;;;6288873;28;20283;-56
2022/01/21 07:35:03;;;;;;;5.17;4.73;;;-1.40;1.00;;;;;;6285715;28;20590;-55
2022/01/21 07:38:06;;;;;;;7.13;5.23;;;-1.30;1.00;;;;;;6289121;28;20626;-56
2022/01/21 07:41:09;;;;;;;7.60;4.70;;;-1.30;1.00;;;;;;6280907;28;20247;-56
2022/01/21 07:44:17;;;;;;;5.47;5.00;;;-1.40;1.00;;;;;;6294753;28;20274;-57
2022/01/21 07:47:19;;;;;;;8.47;4.47;;;-1.30;1.00;;;;;;6288750;28;20233;-56
2022/01/21 07:50:22;;;;;;;6.37;4.90;;;-1.10;1.00;;;;;;6281246;28;20744;-56
2022/01/21 07:53:25;;;;;;;9.40;4.80;;;-1.10;1.00;;;;;;6277764;28;20320;-55
2022/01/21 07:56:28;;;;;;;9.70;5.00;;;-1.10;1.00;;;;;;6287291;28;20243;-56
2022/01/21 07:59:32;;;;;;;6.73;4.70;;;-0.90;1.00;;;;;;6290467;28;20241;-57
2022/01/21 08:02:35;;;;;;;7.10;4.50;;;-1.10;1.00;;;;;;6287920;28;20323;-55
2022/01/21 08:05:38;;;;;;;9.10;5.23;;;-0.90;1.00;;;;;;6284699;28;20303;-57
2022/01/21 08:08:41;;;;;;;8.37;4.53;;;-0.90;1.00;;;;;;6290954;28;20229;-56
2022/01/21 08:11:43;;;;;;;6.50;4.47;;;-0.70;1.00;;;;;;6283458;28;20233;-57
2022/01/21 08:14:47;;;;;;;8.73;4.80;;;-0.60;1.00;;;;;;6287798;28;20248;-56
2022/01/21 08:17:50;;;;;;;7.37;4.87;;;-0.70;1.00;;;;;;6286693;28;20672;-56
2022/01/21 08:20:53;;;;;;;7.40;4.93;;;-0.90;1.00;;;;;;6284518;28;20233;-56
2022/01/21 08:23:56;;;;;;;7.03;4.80;;;-0.70;1.00;;;;;;6282074;28;20271;-56
2022/01/21 08:26:58;;;;;;;9.57;4.87;;;-0.60;1.00;;;;;;6289473;28;20272;-56
2022/01/21 08:30:04;;;;;;;8.83;4.50;;;-0.60;1.00;;;;;;6284499;28;20225;-56
2022/01/21 08:33:07;;;;;;;4.73;4.33;;;-0.30;1.00;;;;;;6280174;28;20246;-56
2022/01/21 08:36:10;;;;;;;8.87;4.43;;;-0.20;1.00;;;;;;6285024;28;20233;-57
2022/01/21 08:39:13;;;;;;;6.83;4.37;;;-0.30;1.00;;;;;;6278714;28;20314;-57
2022/01/21 08:42:16;;;;;;;4.90;4.40;;;-0.10;1.00;;;;;;6284902;28;20865;-58
2022/01/21 08:45:21;;;;;;;5.43;4.40;;;-0.50;1.00;;;;;;6273605;28;20237;-55
2022/01/21 08:48:24;;;;;;;6.93;4.30;;;-0.20;1.00;;;;;;6290519;28;20249;-57
2022/01/21 08:51:36;;;;;;;8.03;5.00;;;-0.10;1.00;;;;;;6283931;28;20292;-56
2022/01/21 08:54:39;;;;;;;8.37;4.80;;;-0.20;1.00;;;;;;6267515;28;20231;-55
2022/01/21 08:57:43;;;;;;;5.73;5.20;;;0.10;1.00;;;;;;6276182;28;20792;-55
2022/01/21 09:00:47;;;;;;;6.30;4.57;;;0.00;1.00;;;;;;6275921;28;20237;-55
2022/01/21 09:03:51;;;;;;;6.73;4.90;;;0.10;1.00;;;;;;6272953;28;20237;-56
2022/01/21 09:06:53;;;;;;;7.70;4.80;;;-0.20;1.00;;;;;;6276354;28;20701;-55
2022/01/21 09:09:56;;;;;;;8.73;4.23;;;0.10;1.00;;;;;;6275666;28;20276;-56
2022/01/21 09:13:03;;;;;;;6.47;4.47;;;0.50;1.00;;;;;;6274283;28;20249;-56
2022/01/21 09:16:09;;;;;;;8.43;4.60;;;0.30;1.00;;;;;;6274817;28;20294;-55
2022/01/21 09:19:12;;;;;;;7.67;4.80;;;0.60;1.00;;;;;;6274248;28;20236;-57
2022/01/21 09:22:15;;;;;;;13.57;4.77;;;0.50;1.00;;;;;;6276340;28;20229;-58
2022/01/21 09:25:18;;;;;;;6.50;4.53;;;0.70;1.00;;;;;;6274355;28;20878;-55
2022/01/21 09:28:21;;;;;;;5.13;4.73;;;0.70;1.00;;;;;;6270881;28;20237;-56
2022/01/21 09:31:26;;;;;;;8.27;4.77;;;0.90;1.00;;;;;;6274667;28;20249;-57
2022/01/21 09:34:49;;;;;;;5.03;4.23;;;1.30;1.00;;;;;;6273663;28;20237;-58
2022/01/21 09:37:52;;;;;;;5.73;4.67;;;1.20;1.00;;;;;;6281229;28;20312;-59
2022/01/21 09:41:17;;;;;;;8.40;4.97;;;1.40;1.00;;;;;;6278408;28;20705;-56
2022/01/21 09:44:22;;;;;;;7.20;4.37;;;1.10;1.00;;;;;;6280967;28;20544;-56
2022/01/21 09:47:31;;;;;;;7.43;5.50;;;1.60;1.00;;;;;;6282609;28;20241;-56
2022/01/21 09:50:34;;;;;;;5.50;4.17;;;1.50;1.00;;;;;;6283035;28;20324;-58
2022/01/21 09:53:37;;;;;;;15.23;5.63;;;1.50;1.00;;;;;;6285206;28;20720;-57
2022/01/21 09:56:42;;;;;;;8.40;5.00;;;1.50;1.00;;;;;;6283951;28;20367;-57
2022/01/21 09:59:46;;;;;;;6.87;5.03;;;1.60;1.00;;;;;;6283669;28;20728;-57
2022/01/21 10:02:52;;;;;;;5.73;4.20;;;1.60;1.00;;;;;;6281287;28;20286;-58
2022/01/21 10:05:55;;;;;;;8.40;4.50;;;1.80;1.00;;;;;;6285771;28;20513;-57
2022/01/21 10:08:58;;;;;;;7.27;4.20;;;2.00;1.00;;;;;;6290033;28;20859;-57
2022/01/21 10:12:02;;;;;;;4.80;4.30;;;2.20;1.00;;;;;;6279697;28;20320;-57
2022/01/21 10:15:06;;;;;;;7.77;4.90;;;2.40;1.00;;;;;;6271693;28;20364;-55
2022/01/21 10:18:27;;;;;;;11.13;4.93;;;2.30;1.00;;;;;;6280547;28;20241;-57
2022/01/21 10:21:31;;;;;;;4.77;3.80;;;2.10;1.00;;;;;;6284120;28;20237;-56
2022/01/21 10:24:37;;;;;;;8.73;4.43;;;2.50;1.00;;;;;;6283526;28;20260;-57
2022/01/21 10:27:40;;;;;;;6.93;4.63;;;2.50;1.00;;;;;;6289704;28;20318;-57
2022/01/21 10:30:43;;;;;;;7.27;4.40;;;2.40;1.00;;;;;;6285867;28;20237;-58
2022/01/21 10:33:49;;;;;;;6.17;4.33;;;2.50;1.00;;;;;;6281010;28;20233;-57
2022/01/21 10:36:56;;;;;;;4.83;4.37;;;2.60;1.00;;;;;;6291180;28;20348;-55
2022/01/21 10:40:01;;;;;;;5.33;4.80;;;2.50;1.00;;;;;;6280759;28;20257;-56
2022/01/21 10:43:11;;;;;;;8.30;4.80;;;2.70;1.00;;;;;;6282540;28;20290;-56
2022/01/21 10:46:16;;;;;;;7.30;4.13;;;2.90;1.00;;;;;;6276706;28;20746;-56
2022/01/21 10:49:24;;;;;;;8.60;4.40;;;3.00;1.00;;;;;;6289353;28;20663;-56
2022/01/21 10:52:36;;;;;;;7.20;4.50;;;3.00;1.00;;;;;;6287995;28;20242;-58
2022/01/21 10:55:39;;;;;;;5.07;4.07;;;3.10;1.00;;;;;;6279191;28;20221;-58
2022/01/21 10:58:43;;;;;;;4.60;4.20;;;3.00;1.00;;;;;;6281502;28;20233;-56
2022/01/21 11:01:59;;;;;;;8.20;4.23;;;2.90;1.00;;;;;;6283949;28;20233;-56
2022/01/21 11:05:07;;;;;;;10.17;4.77;;;3.30;1.00;;;;;;6282035;28;20237;-56
2022/01/21 11:08:11;;;;;;;5.37;4.00;;;3.20;1.00;;;;;;6287845;28;20928;-57
2022/01/21 11:11:21;;;;;;;4.83;4.37;;;3.30;1.00;;;;;;6270234;28;20395;-57
2022/01/21 11:14:24;;;;;;;5.93;4.00;;;3.00;1.00;;;;;;6288997;28;20239;-57
2022/01/21 11:17:28;;;;;;;9.93;4.23;;;3.20;1.00;;;;;;6282086;28;20636;-56
2022/01/21 11:20:36;;;;;;;9.77;4.37;;;3.50;1.00;;;;;;6280041;28;20245;-57
2022/01/21 11:23:39;;;;;;;5.23;4.90;;;3.50;1.00;;;;;;6283406;28;20230;-57
2022/01/21 11:26:43;;;;;;;9.03;4.53;;;3.60;1.00;;;;;;6276204;28;20322;-58
2022/01/21 11:29:48;;;;;;;4.83;4.43;;;3.60;1.00;;;;;;6280942;28;20243;-57
2022/01/21 11:32:50;;;;;;;6.33;4.40;;;3.60;1.00;;;;;;6278789;28;20261;-56
2022/01/21 11:35:54;;;;;;;7.03;4.30;;;3.70;1.00;;;;;;6272507;28;20229;-57
2022/01/21 11:38:58;;;;;;;10.00;6.33;;;3.60;1.00;;;;;;6281248;28;20617;-57
2022/01/21 11:42:05;;;;;;;9.13;4.80;;;3.70;1.00;;;;;;6280598;28;20245;-56
2022/01/21 11:45:20;;;;;;;6.73;4.20;;;3.70;1.00;;;;;;6274875;28;20236;-54
2022/01/21 11:48:50;;;;;;;5.70;4.50;;;3.60;1.00;;;;;;6281527;28;20290;-57
2022/01/21 11:52:11;;;;;;;4.53;4.13;;;3.60;1.00;;;;;;6279319;28;20267;-56
2022/01/21 11:55:33;;;;;;;3.87;3.63;;;3.50;1.00;;;;;;6270826;28;20309;-54
2022/01/21 11:58:36;;;;;;;5.60;3.87;;;3.50;1.00;;;;;;6284115;28;20299;-58
2022/01/21 12:01:46;;;;;;;7.03;3.73;;;3.80;1.00;;;;;;6285688;28;20415;-58
2022/01/21 12:04:51;;;;;;;4.43;3.97;;;3.50;1.00;;;;;;6284507;28;20308;-58
2022/01/21 12:07:55;;;;;;;4.10;3.80;;;3.70;1.00;;;;;;6285463;28;20284;-56
2022/01/21 12:10:58;;;;;;;7.60;3.60;;;3.70;1.00;;;;;;6284803;28;20317;-58
2022/01/21 12:14:06;;;;;;;7.60;4.63;;;3.70;1.00;;;;;;6286317;28;20267;-57
2022/01/21 12:17:20;;;;;;;5.53;3.60;;;4.00;1.00;;;;;;6290501;28;20264;-56
2022/01/21 12:20:31;;;;;;;6.63;4.60;;;4.00;1.00;;;;;;6289434;28;20789;-56
2022/01/21 12:23:44;;;;;;;5.73;3.43;;;4.00;1.00;;;;;;6286930;28;20296;-54
2022/01/21 12:27:04;;;;;;;4.17;3.87;;;3.70;1.00;;;;;;6289273;28;20320;-56
2022/01/21 12:30:26;;;;;;;9.90;4.30;;;4.00;1.00;;;;;;6297065;28;20232;-58
2022/01/21 12:34:00;;;;;;;3.93;3.57;;;4.00;1.00;;;;;;6294196;28;20339;-56
2022/01/21 12:37:09;;;;;;;5.10;4.10;;;4.00;1.00;;;;;;6289342;28;20336;-58
2022/01/21 12:40:33;;;;;;;4.03;3.73;;;4.20;1.00;;;;;;6277117;28;20632;-58
2022/01/21 12:43:44;;;;;;;6.73;4.00;;;4.00;1.00;;;;;;6286446;28;20233;-58
2022/01/21 12:46:52;;;;;;;8.13;4.30;;;3.90;1.00;;;;;;6282165;28;20248;-56
2022/01/21 12:49:57;;;;;;;4.17;3.77;;;3.80;1.00;;;;;;6285010;28;20346;-57
2022/01/21 12:53:17;;;;;;;9.43;4.60;;;4.10;1.00;;;;;;6285341;28;20237;-57
2022/01/21 12:56:20;;;;;;;4.70;4.30;;;3.90;1.00;;;;;;6285215;28;20853;-58
2022/01/21 12:59:25;;;;;;;5.70;4.17;;;4.00;1.00;;;;;;6286868;28;20233;-57
2022/01/21 13:02:29;;;;;;;4.30;3.90;;;4.00;1.00;;;;;;6281679;28;20376;-58
2022/01/21 13:05:40;;;;;;;5.07;3.83;;;3.70;1.00;;;;;;6285876;28;20233;-58
2022/01/21 13:08:59;;;;;;;3.97;3.67;;;3.60;1.00;;;;;;6290941;28;20218;-57
2022/01/21 13:12:11;;;;;;;4.27;3.80;;;3.70;1.00;;;;;;6289932;28;20383;-56
2022/01/21 13:15:14;;;;;;;5.43;3.90;;;3.80;1.00;;;;;;6287648;28;20237;-56
2022/01/21 13:18:19;;;;;;;4.80;3.90;;;3.90;1.00;;;;;;6283570;28;20245;-56
2022/01/21 13:21:21;;;;;;;5.53;3.90;;;3.70;1.00;;;;;;6282259;28;20847;-57
2022/01/21 13:24:29;;;;;;;4.80;3.43;;;3.30;1.00;;;;;;6285048;28;20477;-58
2022/01/21 13:27:35;;;;;;;3.93;3.73;;;4.00;1.00;;;;;;6283951;28;20648;-56
2022/01/21 13:30:38;;;;;;;6.10;3.73;;;3.90;1.00;;;;;;6284391;28;20230;-57
2022/01/21 13:33:42;;;;;;;3.93;3.63;;;3.90;1.00;;;;;;6288045;28;20780;-57
2022/01/21 13:36:48;;;;;;;4.33;3.63;;;3.90;1.00;;;;;;6290196;28;20304;-57
2022/01/21 13:39:51;;;;;;;3.97;3.63;;;3.90;1.00;;;;;;6282921;28;20237;-57
2022/01/21 13:43:09;;;;;;;4.33;3.93;;;3.60;1.00;;;;;;6281696;28;20811;-58
2022/01/21 13:46:15;;;;;;;6.03;4.23;;;3.80;1.00;;;;;;6275378;28;20313;-57
2022/01/21 13:49:21;;;;;;;3.77;3.53;;;3.70;1.00;;;;;;6286077;28;20244;-58
2022/01/21 13:52:35;;;;;;;4.53;4.17;;;3.60;1.00;;;;;;6287986;28;20237;-57
2022/01/21 13:55:41;;;;;;;4.13;3.97;;;3.40;1.00;;;;;;6282260;28;20228;-52
2022/01/21 13:58:45;;;;;;;6.00;3.80;;;3.40;1.00;;;;;;6289413;28;20257;-56
2022/01/21 14:01:48;;;;;;;4.10;3.80;;;3.50;1.00;;;;;;6283486;28;20507;-57
2022/01/21 14:04:57;;;;;;;4.80;3.40;;;3.30;1.00;;;;;;6280368;28;20240;-56
2022/01/21 14:08:10;;;;;;;3.90;3.70;;;3.40;1.00;;;;;;6288880;28;20229;-57
2022/01/21 14:11:14;;;;;;;4.53;3.60;;;3.60;1.00;;;;;;6283878;28;20710;-57
2022/01/21 14:14:22;;;;;;;4.00;3.63;;;3.40;1.00;;;;;;6281913;28;20706;-57
2022/01/21 14:17:25;;;;;;;5.47;3.70;;;3.40;1.00;;;;;;6293652;28;20233;-56
2022/01/21 14:20:31;;;;;;;3.90;3.60;;;3.10;1.00;;;;;;6283569;28;20233;-58
2022/01/21 14:23:37;;;;;;;4.43;4.03;;;3.40;1.00;;;;;;6281607;28;20689;-60
2022/01/21 14:26:42;;;;;;;3.80;3.60;;;3.20;1.00;;;;;;6287898;28;20221;-58
2022/01/21 14:29:54;;;;;;;7.03;4.10;;;3.20;1.00;;;;;;6277639;28;20229;-57
2022/01/21 14:33:00;;;;;;;4.20;3.83;;;2.90;1.00;;;;;;6282745;28;20291;-56
2022/01/21 14:36:13;;;;;;;5.10;3.73;;;2.70;1.00;;;;;;6279024;28;20280;-58
2022/01/21 14:39:18;;;;;;;4.07;3.60;;;2.90;1.00;;;;;;6275277;28;20440;-57
2022/01/21 14:42:25;;;;;;;4.30;3.40;;;2.90;1.00;;;;;;6279487;28;20238;-57
2022/01/21 14:45:29;;;;;;;3.50;3.30;;;2.80;1.00;;;;;;6292711;28;20241;-58
2022/01/21 14:48:33;;;;;;;3.80;3.60;;;2.70;1.00;;;;;;6281719;28;20228;-57
2022/01/21 14:51:40;;;;;;;3.70;3.43;;;3.00;1.00;;;;;;6279459;28;20291;-58
2022/01/21 14:54:43;;;;;;;3.90;3.47;;;2.90;1.00;;;;;;6280705;28;20276;-56
2022/01/21 14:57:51;;;;;;;3.80;3.53;;;2.70;1.00;;;;;;6285319;28;20319;-57
2022/01/21 15:01:04;;;;;;;3.50;3.30;;;2.90;1.00;;;;;;6286446;28;20241;-55
2022/01/21 15:04:12;;;;;;;4.13;3.70;;;3.00;1.00;;;;;;6283512;28;20355;-57
2022/01/21 15:07:23;;;;;;;3.67;3.57;;;2.70;1.00;;;;;;6278821;28;20665;-58
2022/01/21 15:10:35;;;;;;;3.47;3.20;;;2.70;1.00;;;;;;6284060;28;20347;-56
2022/01/21 15:17:02;;;;;;;3.97;3.70;;;2.70;1.00;;;;;;6288388;28;20267;-56
2022/01/21 15:20:06;;;;;;;3.70;3.60;;;2.80;1.00;;;;;;6268507;28;20337;-54
2022/01/21 15:23:10;;;;;;;4.67;3.60;;;2.80;1.00;;;;;;6283609;28;20357;-57
2022/01/21 15:26:15;;;;;;;3.63;3.40;;;2.60;1.00;;;;;;6290868;28;20675;-58
2022/01/21 15:29:18;;;;;;;3.47;3.27;;;2.70;1.00;;;;;;6289261;28;20241;-58
2022/01/21 15:32:23;;;;;;;3.23;3.13;;;2.70;1.00;;;;;;6286716;28;20390;-56
2022/01/21 15:35:28;;;;;;;3.37;3.27;;;2.50;1.00;;;;;;6280660;28;20397;-55
2022/01/21 15:38:31;;;;;;;3.80;3.60;;;2.80;1.00;;;;;;6291486;28;20317;-56
2022/01/21 15:41:34;;;;;;;3.87;3.67;;;2.50;1.00;;;;;;6288359;28;20327;-56
2022/01/21 15:44:37;;;;;;;3.70;3.50;;;2.60;1.00;;;;;;6288693;28;20247;-57
2022/01/21 15:47:41;;;;;;;3.40;3.30;;;2.40;1.00;;;;;;6288809;28;20338;-56
2022/01/21 15:50:45;;;;;;;3.80;3.43;;;2.70;1.00;;;;;;6288644;28;20229;-58
2022/01/21 15:53:48;;;;;;;11.03;3.60;;;2.60;1.00;;;;;;6281521;28;26580;-56
2022/01/21 15:56:51;;;;;;;3.43;3.27;;;2.60;1.00;;;;;;6295343;28;20244;-57
2022/01/21 15:59:54;;;;;;;4.63;4.13;;;2.60;1.00;;;;;;6292091;28;20229;-56
2022/01/21 16:03:02;;;;;;;3.63;3.53;;;2.50;1.00;;;;;;6282205;28;20261;-57
2022/01/21 16:06:05;;;;;;;5.27;3.80;;;2.40;1.00;;;;;;6297205;28;20662;-57
2022/01/21 16:09:08;;;;;;;3.80;3.50;;;2.30;1.00;;;;;;6290675;28;20265;-57
2022/01/21 16:12:11;;;;;;;4.93;3.47;;;2.20;1.00;;;;;;6279484;28;20230;-57
2022/01/21 16:15:13;;;;;;;3.87;3.50;;;2.40;1.00;;;;;;6292622;28;20222;-53
2022/01/21 16:18:18;;;;;;;4.07;3.80;;;2.30;1.00;;;;;;6290501;28;20320;-55
2022/01/21 16:21:22;;;;;;;3.90;3.60;;;1.90;1.00;;;;;;6293239;28;20634;-57
2022/01/21 16:24:25;;;;;;;3.77;3.57;;;2.50;1.00;;;;;;6286962;28;20263;-56
2022/01/21 16:27:27;;;;;;;3.93;3.40;;;2.40;1.00;;;;;;6283828;28;20365;-56
2022/01/21 16:30:30;;;;;;;4.13;3.90;;;2.20;1.00;;;;;;6283266;28;20506;-56
2022/01/21 16:33:34;;;;;;;5.00;3.80;;;2.30;1.00;;;;;;6288344;28;20743;-58
2022/01/21 16:36:37;;;;;;;3.83;3.73;;;2.40;1.00;;;;;;6286731;28;20237;-57
2022/01/21 16:39:40;;;;;;;4.63;4.10;;;2.20;1.00;;;;;;6284837;28;20657;-56
2022/01/21 16:42:43;;;;;;;3.70;3.50;;;2.30;1.00;;;;;;6286135;28;20756;-56
2022/01/21 16:45:46;;;;;;;3.80;3.70;;;1.90;1.00;;;;;;6286732;28;20238;-58
2022/01/21 16:48:50;;;;;;;4.73;4.40;;;2.00;1.00;;;;;;6285965;28;20317;-57
2022/01/21 16:51:53;;;;;;;4.00;3.70;;;2.00;1.00;;;;;;6288406;28;20601;-57
2022/01/21 16:54:56;;;;;;;4.53;4.23;;;2.10;1.00;;;;;;6281855;28;20225;-57
2022/01/21 16:57:59;;;;;;;4.80;4.50;;;1.80;1.00;;;;;;6285482;28;20260;-57
2022/01/21 17:01:02;;;;;;;4.20;4.07;;;1.90;1.00;;;;;;6288067;28;20739;-56
2022/01/21 17:04:07;;;;;;;7.20;4.70;;;2.10;1.00;;;;;;6277207;28;20234;-56
2022/01/21 17:07:10;;;;;;;4.17;3.97;;;1.90;1.00;;;;;;6291732;28;20331;-57
2022/01/21 17:10:14;;;;;;;5.03;3.57;;;1.80;1.00;;;;;;6294714;28;20334;-56